Time;durP1;ratioP1;P1;durP2;ratioP2;P2;SDS_P1;SDS_P2;PMS_P1;PMS_P2;Temp;Humidity;BMP_temperature;BMP_pressure;BME280_temperature;BME280_humidity;BME280_pressure;Samples;Min_cycle;Max_cycle;Signal;HPM_P1;HPM_P2
2023/06/03 00:01:05;;;;;;;9.70;3.10;;;;;;;17.89;57.43;100734.89;107203;1259;107210;-61
2023/06/03 00:03:46;;;;;;;6.40;3.60;;;;;;;17.89;57.25;100737.23;107453;1258;98102;-61
2023/06/03 00:06:15;;;;;;;11.80;3.60;;;;;;;17.88;57.44;100744.60;107405;1260;97704;-61
2023/06/03 00:08:43;;;;;;;9.10;3.10;;;;;;;17.87;57.19;100745.23;107355;1254;112003;-60
2023/06/03 00:11:13;;;;;;;11.40;3.70;;;;;;;17.89;57.08;100752.07;107465;1254;109281;-59
2023/06/03 00:13:42;;;;;;;7.40;3.40;;;;;;;17.91;57.00;100754.60;107386;1260;107326;-61
2023/06/03 00:16:10;;;;;;;7.70;3.50;;;;;;;17.88;57.16;100762.19;107379;1254;97831;-59
2023/06/03 00:18:39;;;;;;;17.80;3.70;;;;;;;17.81;57.40;100761.70;107411;1255;99072;-60
2023/06/03 00:21:09;;;;;;;6.10;2.90;;;;;;;17.69;58.03;100763.38;107420;1258;111704;-60
2023/06/03 00:23:38;;;;;;;7.60;3.20;;;;;;;17.58;58.12;100764.11;107419;1257;108717;-61
2023/06/03 00:26:07;;;;;;;7.60;2.70;;;;;;;17.52;58.19;100762.36;107245;1254;108842;-60
2023/06/03 00:28:35;;;;;;;15.00;3.50;;;;;;;17.51;58.05;100760.77;107339;1254;97893;-58
2023/06/03 00:31:03;;;;;;;5.60;2.80;;;;;;;17.49;58.21;100759.23;107434;1260;97886;-62
2023/06/03 00:33:32;;;;;;;5.20;2.90;;;;;;;17.49;58.12;100760.44;107358;1260;111013;-58
2023/06/03 00:36:01;;;;;;;10.70;3.50;;;;;;;17.51;58.01;100763.12;107442;1254;110010;-60
2023/06/03 00:38:29;;;;;;;9.60;3.50;;;;;;;17.48;58.30;100763.11;107350;1258;108217;-60
2023/06/03 00:40:58;;;;;;;12.90;4.20;;;;;;;17.47;58.53;100772.29;107417;1254;97886;-60
2023/06/03 00:43:26;;;;;;;13.40;3.40;;;;;;;17.45;58.46;100773.40;107372;1260;98363;-59
2023/06/03 00:45:55;;;;;;;10.40;3.90;;;;;;;17.47;58.27;100775.59;107449;1257;111323;-59
2023/06/03 00:48:24;;;;;;;13.30;4.10;;;;;;;17.46;58.49;100769.48;107414;1254;109043;-60
2023/06/03 00:50:53;;;;;;;11.60;3.10;;;;;;;17.43;58.27;100773.34;107286;1254;108773;-61
2023/06/03 00:53:21;;;;;;;8.70;3.30;;;;;;;17.42;58.40;100775.77;107312;1258;97691;-61
2023/06/03 00:55:51;;;;;;;9.00;3.50;;;;;;;17.40;58.35;100777.77;107386;1254;97925;-59
2023/06/03 00:58:19;;;;;;;6.20;2.90;;;;;;;17.35;58.58;100774.89;107235;1260;111814;-61
2023/06/03 01:00:48;;;;;;;8.50;3.20;;;;;;;17.34;58.38;100777.25;107268;1257;110576;-62
2023/06/03 01:03:19;;;;;;;11.10;3.70;;;;;;;17.34;58.34;100780.50;107466;1257;107560;-59
2023/06/03 01:06:01;;;;;;;16.80;4.00;;;;;;;17.34;58.25;100789.89;107461;1255;97909;-60
2023/06/03 01:08:51;;;;;;;6.90;3.30;;;;;;;17.32;58.18;100794.31;107407;1254;97805;-61
2023/06/03 01:11:48;;;;;;;7.60;3.30;;;;;;;17.31;57.99;100804.39;107268;1254;110484;-61
2023/06/03 01:14:32;;;;;;;6.80;3.40;;;;;;;17.29;57.89;100804.67;107215;1254;108632;-60
2023/06/03 01:17:09;;;;;;;13.40;3.80;;;;;;;17.30;58.03;100810.14;107399;1254;108764;-61
2023/06/03 01:19:48;;;;;;;10.40;3.50;;;;;;;17.26;58.13;100810.27;107341;1254;97841;-60
2023/06/03 01:22:24;;;;;;;9.70;3.90;;;;;;;17.24;57.98;100815.03;107368;1257;98376;-60
2023/06/03 01:25:08;;;;;;;10.00;3.80;;;;;;;17.22;58.28;100819.77;107360;1254;112113;-61
2023/06/03 01:27:38;;;;;;;13.20;4.00;;;;;;;17.17;58.22;100824.11;107415;1254;109102;-60
2023/06/03 01:30:10;;;;;;;8.00;3.50;;;;;;;17.12;58.38;100823.98;107343;1254;107770;-59
2023/06/03 01:32:40;;;;;;;8.70;4.00;;;;;;;17.09;58.34;100828.13;107361;1260;97702;-61
2023/06/03 01:35:12;;;;;;;12.40;4.30;;;;;;;17.06;58.81;100827.92;107409;1258;97751;-60
2023/06/03 01:37:41;;;;;;;11.00;3.30;;;;;;;17.04;58.81;100828.77;107377;1254;110075;-59
2023/06/03 01:40:10;;;;;;;8.50;3.80;;;;;;;17.04;58.56;100833.79;107338;1254;109716;-60
2023/06/03 01:42:39;;;;;;;14.30;4.50;;;;;;;17.06;58.79;100837.73;107376;1255;108588;-59
2023/06/03 01:45:08;;;;;;;9.70;4.00;;;;;;;17.07;58.71;100846.66;107119;1254;97922;-59
2023/06/03 01:47:37;;;;;;;15.50;4.20;;;;;;;17.09;58.64;100846.17;107431;1257;97819;-61
2023/06/03 01:50:07;;;;;;;11.90;3.80;;;;;;;17.08;58.41;100847.33;107434;1254;110709;-61
2023/06/03 01:52:35;;;;;;;9.80;3.50;;;;;;;17.08;58.51;100851.44;107220;1258;109075;-61
2023/06/03 01:55:04;;;;;;;7.90;3.50;;;;;;;17.10;58.36;100854.69;107328;1254;108847;-59
2023/06/03 01:57:33;;;;;;;9.60;3.50;;;;;;;17.11;58.30;100856.02;107330;1255;97816;-59
2023/06/03 02:00:06;;;;;;;14.10;3.40;;;;;;;17.14;58.11;100862.69;107193;1254;98108;-59
2023/06/03 02:02:41;;;;;;;12.30;3.60;;;;;;;17.18;57.66;100868.66;107280;1254;111304;-58
2023/06/03 02:05:10;;;;;;;6.10;3.70;;;;;;;17.19;57.36;100874.86;107307;1254;109807;-58
2023/06/03 02:07:39;;;;;;;9.60;3.50;;;;;;;17.19;56.92;100888.59;107355;1260;107351;-59
2023/06/03 02:10:09;;;;;;;11.80;3.50;;;;;;;17.14;56.63;100892.23;107228;1254;97853;-61
2023/06/03 02:12:37;;;;;;;11.30;3.40;;;;;;;17.09;56.46;100892.85;107299;1254;98351;-59
2023/06/03 02:15:15;;;;;;;14.70;3.90;;;;;;;17.03;56.26;100892.67;107381;1257;111009;-60
2023/06/03 02:17:44;;;;;;;13.10;3.60;;;;;;;16.99;56.15;100897.10;107223;1257;109263;-60
2023/06/03 02:20:12;;;;;;;14.60;3.60;;;;;;;16.96;56.14;100900.61;107318;1259;107665;-60
2023/06/03 02:22:41;;;;;;;16.40;3.50;;;;;;;16.97;56.05;100903.16;107331;1254;97707;-61
2023/06/03 02:25:09;;;;;;;11.80;3.60;;;;;;;16.96;56.01;100903.39;107257;1254;98363;-59
2023/06/03 02:27:38;;;;;;;20.50;4.10;;;;;;;17.02;55.94;100904.29;107102;1254;110510;-59
2023/06/03 02:30:12;;;;;;;10.10;3.90;;;;;;;17.08;55.65;100907.66;107461;1254;110197;-60
2023/06/03 02:32:41;;;;;;;18.70;4.00;;;;;;;17.07;55.47;100909.23;107394;1254;107177;-59
2023/06/03 02:35:10;;;;;;;10.50;3.80;;;;;;;17.07;55.32;100910.91;107350;1254;97832;-60
2023/06/03 02:37:38;;;;;;;13.40;3.60;;;;;;;17.08;55.13;100913.98;107402;1257;97700;-61
2023/06/03 02:40:09;;;;;;;9.60;3.40;;;;;;;17.07;55.05;100913.42;107278;1254;110933;-61
2023/06/03 02:42:38;;;;;;;14.80;3.90;;;;;;;16.98;54.76;100921.98;107339;1254;109082;-61
2023/06/03 02:45:07;;;;;;;11.90;3.80;;;;;;;16.92;54.78;100926.98;107374;1254;107876;-60
2023/06/03 02:47:36;;;;;;;15.40;3.50;;;;;;;16.90;54.85;100932.76;107258;1254;97931;-61
2023/06/03 02:50:06;;;;;;;13.80;3.90;;;;;;;16.88;54.62;100935.17;107356;1257;99548;-61
2023/06/03 02:52:35;;;;;;;9.40;3.90;;;;;;;16.89;54.60;100936.02;107123;1254;112381;-59
2023/06/03 02:55:05;;;;;;;8.90;3.80;;;;;;;16.90;54.39;100940.45;107142;1254;110088;-61
2023/06/03 02:57:33;;;;;;;17.20;3.70;;;;;;;16.85;54.25;100949.71;107302;1260;108571;-62
2023/06/03 03:00:09;;;;;;;9.90;3.70;;;;;;;16.80;54.27;100957.91;107341;1255;97825;-60
2023/06/03 03:02:39;;;;;;;7.80;3.50;;;;;;;16.77;54.48;100961.63;107377;1254;97982;-58
2023/06/03 03:05:10;;;;;;;17.50;4.60;;;;;;;16.73;54.60;100966.63;107381;1258;111875;-59
2023/06/03 03:07:39;;;;;;;11.90;3.70;;;;;;;16.67;54.70;100966.36;107343;1259;108503;-61
2023/06/03 03:10:08;;;;;;;8.60;3.70;;;;;;;16.64;54.72;100973.77;107004;1257;107549;-58
2023/06/03 03:12:37;;;;;;;24.30;3.70;;;;;;;16.65;54.64;100983.58;107217;1254;97854;-61
2023/06/03 03:15:08;;;;;;;12.60;3.60;;;;;;;16.65;54.73;100980.69;107131;1257;97896;-59
2023/06/03 03:17:36;;;;;;;11.40;3.70;;;;;;;16.68;54.74;100986.56;107122;1257;110738;-59
2023/06/03 03:20:06;;;;;;;9.30;3.50;;;;;;;16.69;54.72;101001.78;107330;1259;108647;-61
2023/06/03 03:22:39;;;;;;;18.70;4.10;;;;;;;16.72;54.62;101000.23;107274;1254;107153;-60
2023/06/03 03:25:08;;;;;;;13.10;3.50;;;;;;;16.76;54.79;100999.38;107277;1254;98349;-59
2023/06/03 03:27:38;;;;;;;7.80;3.80;;;;;;;16.82;54.70;101014.45;107166;1254;97846;-61
2023/06/03 03:30:08;;;;;;;11.20;3.70;;;;;;;16.86;54.49;101012.62;107216;1257;112582;-60
2023/06/03 03:32:37;;;;;;;10.90;4.60;;;;;;;16.87;54.77;101020.84;107170;1256;109846;-58
2023/06/03 03:35:20;;;;;;;9.50;3.80;;;;;;;16.87;54.79;101020.44;107356;1260;107833;-57
2023/06/03 03:38:11;;;;;;;15.00;4.10;;;;;;;16.91;54.78;101028.20;107341;1257;97905;-59
2023/06/03 03:40:40;;;;;;;13.90;4.50;;;;;;;16.97;54.83;101033.16;107276;1257;98373;-59
2023/06/03 03:43:17;;;;;;;15.40;3.90;;;;;;;17.06;54.73;101032.39;107369;1254;110841;-59
2023/06/03 03:45:47;;;;;;;7.30;3.70;;;;;;;17.09;54.79;101034.90;107371;1254;110071;-59
2023/06/03 03:48:20;;;;;;;9.40;3.90;;;;;;;17.11;54.77;101032.23;107348;1254;107989;-59
2023/06/03 03:50:52;;;;;;;9.10;3.50;;;;;;;17.13;54.71;101036.12;107354;1258;97815;-60
2023/06/03 03:53:34;;;;;;;10.50;3.70;;;;;;;17.19;54.83;101035.19;107383;1254;97774;-59
2023/06/03 03:56:08;;;;;;;10.20;3.30;;;;;;;17.26;54.84;101032.63;107361;1254;111235;-59
2023/06/03 03:58:43;;;;;;;11.60;3.70;;;;;;;17.36;55.02;101034.25;107073;1257;108661;-60
2023/06/03 04:01:22;;;;;;;6.90;3.30;;;;;;;17.42;54.93;101036.67;107192;1254;108209;-59
2023/06/03 04:03:57;;;;;;;8.40;3.20;;;;;;;17.47;54.98;101036.27;107147;1255;97902;-61
2023/06/03 04:06:44;;;;;;;10.30;3.50;;;;;;;17.52;54.78;101040.90;107259;1254;97758;-61
2023/06/03 04:09:13;;;;;;;13.60;4.60;;;;;;;17.57;54.86;101046.23;107181;1256;112410;-59
2023/06/03 04:11:43;;;;;;;8.90;3.00;;;;;;;17.63;54.86;101050.99;107344;1254;110204;-58
2023/06/03 04:14:16;;;;;;;13.10;3.60;;;;;;;17.68;54.70;101054.37;107205;1257;107487;-59
2023/06/03 04:16:58;;;;;;;14.80;3.80;;;;;;;17.71;54.59;101059.09;107336;1259;97944;-59
2023/06/03 04:19:36;;;;;;;26.70;4.10;;;;;;;17.75;55.06;101058.08;107206;1257;98486;-60
2023/06/03 04:22:23;;;;;;;14.80;3.90;;;;;;;17.70;54.95;101061.27;107298;1254;112046;-60
2023/06/03 04:24:58;;;;;;;7.00;3.60;;;;;;;17.69;55.02;101061.31;107367;1254;109822;-58
2023/06/03 04:27:32;;;;;;;19.60;3.70;;;;;;;17.68;55.12;101061.79;107322;1254;106711;-62
2023/06/03 04:30:04;;;;;;;8.30;3.10;;;;;;;17.62;55.24;101065.18;107327;1254;98278;-59
2023/06/03 04:32:32;;;;;;;11.60;4.50;;;;;;;17.59;55.40;101077.70;107409;1254;97689;-59
2023/06/03 04:35:01;;;;;;;8.80;3.30;;;;;;;17.59;55.46;101079.54;107376;1254;111335;-59
2023/06/03 04:37:31;;;;;;;12.70;3.50;;;;;;;17.59;55.36;101080.39;107092;1254;109925;-58
2023/06/03 04:40:01;;;;;;;22.80;3.20;;;;;;;17.57;55.40;101090.45;107298;1257;107444;-60
2023/06/03 04:42:30;;;;;;;17.90;3.60;;;;;;;17.56;55.84;101093.12;107329;1254;98187;-58
2023/06/03 04:45:01;;;;;;;14.10;3.50;;;;;;;17.59;55.70;101098.41;107203;1257;97924;-64
2023/06/03 04:47:34;;;;;;;7.40;2.60;;;;;;;17.61;55.68;101107.59;107165;1257;112231;-63
2023/06/03 04:50:04;;;;;;;11.50;2.90;;;;;;;17.63;55.57;101116.42;107384;1254;109177;-62
2023/06/03 04:52:34;;;;;;;10.00;3.00;;;;;;;17.68;55.53;101123.61;107202;1257;107308;-59
2023/06/03 04:55:03;;;;;;;24.20;3.00;;;;;;;17.77;55.20;101122.84;107337;1257;97749;-60
2023/06/03 04:57:32;;;;;;;25.50;3.10;;;;;;;17.87;55.02;101124.81;107180;1255;97809;-59
2023/06/03 05:00:05;;;;;;;18.00;2.70;;;;;;;18.04;53.58;101124.91;107316;1254;112139;-60
2023/06/03 05:02:34;;;;;;;17.60;3.40;;;;;;;18.22;52.62;101122.28;107153;1255;109442;-60
2023/06/03 05:05:05;;;;;;;18.50;2.90;;;;;;;18.42;51.99;101136.87;107166;1254;107879;-61
2023/06/03 05:07:35;;;;;;;18.20;3.40;;;;;;;18.58;51.03;101132.41;107153;1260;97854;-63
2023/06/03 05:10:05;;;;;;;12.40;2.70;;;;;;;18.75;51.18;101133.94;107408;1254;97730;-61
2023/06/03 05:12:33;;;;;;;16.00;2.80;;;;;;;18.93;50.98;101133.85;107359;1254;112326;-61
2023/06/03 05:15:03;;;;;;;16.10;2.60;;;;;;;19.07;50.75;101143.42;107199;1257;108877;-60
2023/06/03 05:17:31;;;;;;;15.20;3.40;;;;;;;19.22;50.56;101151.61;107293;1254;108996;-60
2023/06/03 05:20:00;;;;;;;50.10;5.80;;;;;;;19.31;50.67;101158.55;107242;1254;97848;-60
2023/06/03 05:22:29;;;;;;;18.50;2.60;;;;;;;19.35;50.07;101165.91;107353;1254;98364;-61
2023/06/03 05:24:58;;;;;;;24.60;3.40;;;;;;;19.27;50.28;101168.52;107177;1254;110803;-62
2023/06/03 05:27:26;;;;;;;9.40;2.50;;;;;;;19.15;50.01;101169.27;107155;1254;108310;-61
2023/06/03 05:29:55;;;;;;;21.20;2.60;;;;;;;19.04;49.95;101176.83;107327;1254;107844;-60
2023/06/03 05:32:24;;;;;;;26.00;3.50;;;;;;;18.98;49.66;101178.13;107303;1259;97943;-60
2023/06/03 05:34:53;;;;;;;31.70;3.20;;;;;;;18.94;49.91;101189.71;107343;1254;97771;-61
2023/06/03 05:37:22;;;;;;;4.80;2.30;;;;;;;18.93;50.22;101194.00;107327;1254;111319;-60
2023/06/03 05:39:50;;;;;;;21.30;2.80;;;;;;;19.01;50.71;101198.34;107409;1254;109923;-60
2023/06/03 05:42:19;;;;;;;19.60;2.90;;;;;;;19.07;49.92;101208.02;107118;1260;108596;-60
2023/06/03 05:44:47;;;;;;;21.30;2.40;;;;;;;19.07;49.45;101209.03;107413;1259;97868;-59
2023/06/03 05:47:16;;;;;;;21.60;3.20;;;;;;;19.12;48.88;101214.32;107195;1254;97822;-61
2023/06/03 05:49:45;;;;;;;37.50;3.40;;;;;;;19.09;48.57;101213.35;107398;1254;111446;-60
2023/06/03 05:52:14;;;;;;;9.10;1.80;;;;;;;19.04;48.37;101220.44;107208;1254;108895;-62
2023/06/03 05:54:42;;;;;;;18.90;2.60;;;;;;;19.03;48.40;101222.09;107371;1254;107312;-61
2023/06/03 05:57:10;;;;;;;12.40;2.50;;;;;;;19.01;48.20;101222.98;107270;1257;97836;-61
2023/06/03 05:59:40;;;;;;;17.30;3.60;;;;;;;19.00;48.36;101222.95;107209;1254;97766;-60
2023/06/03 06:02:09;;;;;;;15.00;2.60;;;;;;;19.03;48.48;101229.14;107153;1254;111781;-66
2023/06/03 06:04:38;;;;;;;16.10;2.50;;;;;;;19.05;48.07;101229.27;107091;1254;109401;-66
2023/06/03 06:07:07;;;;;;;9.70;2.20;;;;;;;19.03;48.33;101235.71;107015;1254;108191;-61
2023/06/03 06:09:36;;;;;;;14.00;2.70;;;;;;;19.06;48.76;101236.74;107146;1255;98245;-61
2023/06/03 06:12:12;;;;;;;12.80;2.30;;;;;;;19.09;48.71;101237.59;107309;1254;97954;-61
2023/06/03 06:14:41;;;;;;;9.60;2.20;;;;;;;19.04;48.33;101240.25;107113;1257;111233;-61
2023/06/03 06:17:16;;;;;;;9.90;2.20;;;;;;;19.03;47.92;101243.54;107216;1254;108993;-62
2023/06/03 06:19:47;;;;;;;17.80;2.20;;;;;;;18.96;48.04;101244.15;107334;1254;108334;-63
2023/06/03 06:22:16;;;;;;;21.70;3.10;;;;;;;18.91;48.10;101246.13;107126;1254;97997;-62
2023/06/03 06:24:45;;;;;;;16.40;2.10;;;;;;;18.96;48.15;101251.09;107033;1254;97816;-64
2023/06/03 06:27:15;;;;;;;10.30;1.90;;;;;;;18.98;48.08;101253.19;107104;1254;111091;-61
2023/06/03 06:29:44;;;;;;;10.90;2.60;;;;;;;19.03;47.42;101256.19;107166;1254;108894;-60
2023/06/03 06:32:22;;;;;;;11.40;2.70;;;;;;;19.12;47.28;101261.55;107271;1254;108483;-59
2023/06/03 06:34:50;;;;;;;17.00;2.60;;;;;;;19.23;46.67;101258.15;106895;1254;97890;-61
2023/06/03 06:37:19;;;;;;;23.30;2.40;;;;;;;19.31;46.68;101265.11;107193;1254;97860;-60
2023/06/03 06:39:52;;;;;;;11.60;2.10;;;;;;;19.39;45.90;101265.67;107147;1254;111477;-59
2023/06/03 06:42:40;;;;;;;17.60;2.70;;;;;;;19.45;46.18;101266.10;107352;1254;109117;-62
2023/06/03 06:45:27;;;;;;;9.60;2.40;;;;;;;19.54;46.10;101272.13;107279;1254;108210;-61
2023/06/03 06:48:05;;;;;;;13.90;2.30;;;;;;;19.61;46.19;101268.17;107358;1254;97829;-61
2023/06/03 06:50:59;;;;;;;18.20;2.30;;;;;;;19.67;45.40;101265.06;107106;1254;97762;-61
2023/06/03 06:53:34;;;;;;;14.70;2.10;;;;;;;19.64;45.46;101277.63;107296;1254;112406;-60
2023/06/03 06:56:10;;;;;;;6.70;2.20;;;;;;;19.61;45.14;101278.73;107381;1254;109214;-60
2023/06/03 06:58:48;;;;;;;21.20;1.90;;;;;;;19.59;45.61;101279.10;107314;1254;108952;-60
2023/06/03 07:01:16;;;;;;;6.70;2.00;;;;;;;19.55;45.79;101280.64;107327;1258;97972;-61
2023/06/03 07:03:48;;;;;;;9.30;1.70;;;;;;;19.55;45.77;101288.56;107201;1254;97909;-60
2023/06/03 07:06:17;;;;;;;14.40;2.80;;;;;;;19.55;45.57;101294.12;107162;1254;110949;-59
2023/06/03 07:08:47;;;;;;;14.40;2.10;;;;;;;19.61;45.54;101293.48;107320;1257;109228;-61
2023/06/03 07:11:17;;;;;;;6.10;1.90;;;;;;;19.67;45.24;101293.77;107381;1254;108198;-61
2023/06/03 07:13:51;;;;;;;8.30;1.50;;;;;;;19.67;45.45;101302.38;107361;1254;97860;-61
2023/06/03 07:16:21;;;;;;;10.00;1.80;;;;;;;19.69;45.06;101307.36;107291;1259;97902;-60
2023/06/03 07:18:53;;;;;;;11.90;1.70;;;;;;;19.73;45.11;101316.29;106976;1255;111328;-62
2023/06/03 07:21:51;;;;;;;14.90;1.90;;;;;;;19.78;44.55;101319.41;107158;1254;109706;-60
2023/06/03 07:24:20;;;;;;;17.40;2.60;;;;;;;19.83;44.77;101325.58;107061;1255;106572;-61
2023/06/03 07:26:50;;;;;;;9.70;1.90;;;;;;;19.95;44.27;101333.34;107100;1254;97980;-63
2023/06/03 07:29:19;;;;;;;7.80;1.90;;;;;;;20.03;43.63;101333.69;107377;1254;97813;-62
2023/06/03 07:31:48;;;;;;;6.70;1.90;;;;;;;20.16;43.69;101335.74;107225;1260;112423;-62
2023/06/03 07:34:24;;;;;;;16.80;2.30;;;;;;;20.31;43.27;101336.44;107149;1254;109096;-62
2023/06/03 07:36:59;;;;;;;7.50;2.30;;;;;;;20.43;42.83;101333.55;107126;1254;107705;-62
2023/06/03 07:39:31;;;;;;;19.80;2.70;;;;;;;20.64;43.14;101329.48;107325;1254;97934;-61
2023/06/03 07:42:02;;;;;;;12.30;1.70;;;;;;;20.91;42.69;101343.23;107294;1254;97825;-63
2023/06/03 07:44:45;;;;;;;7.80;1.60;;;;;;;21.13;41.50;101353.02;107273;1254;112156;-61
2023/06/03 07:47:16;;;;;;;14.40;1.70;;;;;;;21.15;40.62;101356.07;107366;1254;108476;-61
2023/06/03 07:49:45;;;;;;;14.40;2.20;;;;;;;21.05;40.58;101359.86;107347;1254;107777;-61
2023/06/03 07:52:19;;;;;;;13.40;2.30;;;;;;;20.94;40.76;101360.81;107404;1254;97889;-61
2023/06/03 07:54:48;;;;;;;13.00;1.80;;;;;;;20.77;41.28;101361.52;107395;1254;97746;-60
2023/06/03 07:57:20;;;;;;;16.80;1.80;;;;;;;20.67;41.74;101364.30;107398;1254;110987;-60
2023/06/03 07:59:53;;;;;;;13.40;1.90;;;;;;;20.59;42.10;101367.86;107376;1254;108919;-59
2023/06/03 08:02:22;;;;;;;15.70;1.90;;;;;;;20.58;42.07;101367.75;106783;1254;687587;-60
2023/06/03 08:04:55;;;;;;;6.40;1.70;;;;;;;20.59;42.24;101380.41;107390;1258;97922;-60
2023/06/03 08:07:25;;;;;;;15.00;2.30;;;;;;;20.53;41.61;101372.27;107398;1254;97703;-60
2023/06/03 08:09:54;;;;;;;8.50;2.80;;;;;;;20.46;42.25;101374.13;107346;1255;111128;-61
2023/06/03 08:12:29;;;;;;;13.00;2.00;;;;;;;20.50;42.06;101380.28;107352;1254;109598;-61
2023/06/03 08:14:58;;;;;;;9.50;1.80;;;;;;;20.43;42.05;101390.30;107409;1254;109217;-60
2023/06/03 08:17:40;;;;;;;6.40;1.70;;;;;;;20.41;42.24;101396.15;107368;1257;97729;-60
2023/06/03 08:20:10;;;;;;;16.60;2.90;;;;;;;20.39;42.21;101395.79;107372;1258;97716;-60
2023/06/03 08:22:45;;;;;;;13.50;1.60;;;;;;;20.37;42.05;101407.49;107377;1254;112728;-61
2023/06/03 08:25:14;;;;;;;5.10;1.50;;;;;;;20.35;42.59;101407.21;107366;1254;109408;-60
2023/06/03 08:27:47;;;;;;;17.60;2.10;;;;;;;20.37;42.13;101406.79;107302;1257;107647;-60
2023/06/03 08:30:17;;;;;;;10.00;1.60;;;;;;;20.40;42.18;101415.02;107325;1254;97834;-60
2023/06/03 08:32:46;;;;;;;14.10;2.50;;;;;;;20.41;41.96;101422.86;107199;1260;97842;-63
2023/06/03 08:35:20;;;;;;;9.40;1.50;;;;;;;20.33;42.43;101431.81;107233;1256;110126;-62
2023/06/03 08:37:48;;;;;;;4.70;1.30;;;;;;;20.26;42.10;101437.17;107368;1254;109254;-61
2023/06/03 08:40:17;;;;;;;10.20;1.90;;;;;;;20.31;42.22;101440.64;107318;1257;108726;-64
2023/06/03 08:43:00;;;;;;;15.20;2.10;;;;;;;20.40;42.30;101439.81;107369;1254;97831;-59
2023/06/03 08:45:53;;;;;;;14.90;1.50;;;;;;;20.45;41.74;101444.40;107316;1254;98495;-61
2023/06/03 08:48:26;;;;;;;16.90;1.50;;;;;;;20.35;42.05;101446.67;107278;1254;111134;-60
2023/06/03 08:51:04;;;;;;;10.90;1.50;;;;;;;20.39;42.33;101451.41;107331;1254;109918;-64
2023/06/03 08:53:53;;;;;;;8.90;1.60;;;;;;;20.41;41.98;101443.75;107406;1254;107982;-61
2023/06/03 08:56:25;;;;;;;14.50;2.30;;;;;;;20.43;41.87;101451.57;107373;1254;97822;-63
2023/06/03 08:59:01;;;;;;;10.50;1.90;;;;;;;20.49;42.11;101460.53;107381;1253;97906;-62
2023/06/03 09:01:35;;;;;;;5.20;2.00;;;;;;;20.66;41.94;101466.83;107410;1253;111450;-61
2023/06/03 09:04:04;;;;;;;8.50;1.60;;;;;;;20.89;41.28;101471.10;107380;1254;109018;-59
2023/06/03 09:06:33;;;;;;;8.30;1.90;;;;;;;21.02;41.29;101480.59;107373;1254;108082;-63
2023/06/03 09:09:01;;;;;;;14.50;1.80;;;;;;;21.21;40.61;101483.09;107383;1254;97816;-61
2023/06/03 09:11:30;;;;;;;13.10;1.70;;;;;;;21.28;39.83;101487.67;107405;1254;98500;-61
2023/06/03 09:14:00;;;;;;;12.00;1.40;;;;;;;21.33;39.67;101490.54;107293;1254;112199;-59
2023/06/03 09:16:29;;;;;;;12.80;1.80;;;;;;;21.31;39.81;101488.95;107312;1254;109348;-60
2023/06/03 09:18:58;;;;;;;17.10;1.70;;;;;;;21.43;39.18;101491.84;107156;1260;108365;-61
2023/06/03 09:21:27;;;;;;;9.80;1.60;;;;;;;21.43;39.60;101491.38;107411;1254;97883;-61
2023/06/03 09:23:55;;;;;;;15.50;2.20;;;;;;;21.64;39.35;101499.45;107415;1254;98370;-61
2023/06/03 09:26:25;;;;;;;16.50;1.80;;;;;;;21.77;38.56;101498.17;107382;1254;112696;-60
2023/06/03 09:28:53;;;;;;;11.60;1.40;;;;;;;21.92;38.38;101500.95;107450;1254;110031;-60
2023/06/03 09:31:24;;;;;;;7.40;1.50;;;;;;;22.16;37.61;101506.80;107364;1253;105572;-60
2023/06/03 09:33:52;;;;;;;10.70;2.10;;;;;;;22.42;37.32;101507.41;107426;1254;98011;-62
2023/06/03 09:36:21;;;;;;;8.60;1.40;;;;;;;22.73;37.10;101512.19;107344;1254;98367;-60
2023/06/03 09:38:55;;;;;;;9.80;1.60;;;;;;;23.10;36.02;101510.21;107365;1257;110473;-60
2023/06/03 09:41:29;;;;;;;8.30;1.90;;;;;;;23.25;35.63;101512.52;107400;1254;109902;-61
2023/06/03 09:44:02;;;;;;;3.80;1.10;;;;;;;23.39;35.09;101519.65;107336;1254;108079;-62
2023/06/03 09:46:35;;;;;;;3.60;1.50;;;;;;;23.46;33.67;101525.30;107381;1254;97838;-62
2023/06/03 09:49:18;;;;;;;3.60;1.10;;;;;;;23.58;33.29;101527.80;107215;1259;97849;-62
2023/06/03 09:52:11;;;;;;;26.20;2.00;;;;;;;23.66;33.12;101522.48;107395;1254;112565;-61
2023/06/03 09:54:39;;;;;;;2.60;0.70;;;;;;;23.39;33.19;101530.02;107356;1257;110124;-61
2023/06/03 09:57:12;;;;;;;6.70;1.10;;;;;;;23.13;33.29;101532.14;107318;1254;108607;-59
2023/06/03 09:59:43;;;;;;;10.70;1.30;;;;;;;22.88;33.68;101528.55;107436;1254;97724;-62
2023/06/03 10:02:11;;;;;;;8.30;1.30;;;;;;;22.62;34.43;101528.52;107466;1254;97703;-61
2023/06/03 10:04:44;;;;;;;4.70;1.70;;;;;;;22.51;34.85;101530.91;107416;1254;112340;-61
2023/06/03 10:07:17;;;;;;;4.80;1.10;;;;;;;22.39;34.69;101534.90;107349;1254;108689;-63
2023/06/03 10:09:47;;;;;;;9.30;1.30;;;;;;;22.14;35.22;101536.88;107445;1254;106651;-62
2023/06/03 10:12:28;;;;;;;7.20;1.20;;;;;;;22.18;35.72;101534.40;107276;1254;97810;-62
2023/06/03 10:15:00;;;;;;;8.20;1.50;;;;;;;22.33;35.24;101534.80;107334;1254;97752;-60
2023/06/03 10:17:28;;;;;;;6.20;1.30;;;;;;;22.36;34.91;101537.45;107383;1254;111483;-61
2023/06/03 10:19:57;;;;;;;8.00;1.50;;;;;;;22.35;35.02;101542.96;107560;1254;110208;-61
2023/06/03 10:22:26;;;;;;;4.90;1.40;;;;;;;22.49;35.64;101540.92;107397;1253;108986;-61
2023/06/03 10:24:56;;;;;;;5.80;1.30;;;;;;;22.70;35.05;101541.15;107364;1254;97813;-61
2023/06/03 10:27:25;;;;;;;7.10;1.30;;;;;;;23.04;34.25;101540.69;107417;1254;97694;-59
2023/06/03 10:29:54;;;;;;;3.60;1.10;;;;;;;23.35;33.93;101539.66;107453;1254;111377;-60
2023/06/03 10:32:23;;;;;;;10.10;1.00;;;;;;;23.79;33.74;101539.26;107319;1253;110116;-61
2023/06/03 10:34:54;;;;;;;5.20;1.10;;;;;;;24.59;32.55;101534.44;107389;1254;107159;-62
2023/06/03 10:37:24;;;;;;;5.90;1.60;;;;;;;25.14;31.37;101536.41;107421;1254;97832;-63
2023/06/03 10:39:55;;;;;;;4.40;1.10;;;;;;;25.55;31.01;101534.42;107394;1254;97873;-62
2023/06/03 10:42:23;;;;;;;4.80;1.20;;;;;;;25.97;29.88;101533.42;107435;1254;111888;-62
2023/06/03 10:44:51;;;;;;;22.40;3.00;;;;;;;26.19;29.78;101539.50;107317;1254;109409;-61
2023/06/03 10:47:26;;;;;;;10.50;1.80;;;;;;;26.18;27.81;101539.20;107366;1254;108793;-61
2023/06/03 10:50:09;;;;;;;5.60;1.80;;;;;;;25.71;28.14;101535.83;107337;1254;97886;-64
2023/06/03 10:52:37;;;;;;;13.60;2.30;;;;;;;25.45;28.60;101544.16;107438;1254;97723;-61
2023/06/03 10:55:31;;;;;;;12.10;1.90;;;;;;;25.47;28.85;101540.05;107454;1254;112092;-62
2023/06/03 10:58:06;;;;;;;8.00;1.10;;;;;;;25.72;28.12;101539.30;107453;1254;109270;-61
2023/06/03 11:00:56;;;;;;;4.50;1.30;;;;;;;25.81;27.86;101540.02;107417;1254;107645;-60
2023/06/03 11:03:27;;;;;;;6.00;1.30;;;;;;;26.07;27.54;101542.27;107382;1255;97831;-63
2023/06/03 11:06:25;;;;;;;4.90;1.40;;;;;;;26.32;27.95;101538.19;107391;1254;98997;-62
2023/06/03 11:09:05;;;;;;;4.20;1.10;;;;;;;26.76;27.67;101536.91;107391;1254;111798;-61
2023/06/03 11:11:52;;;;;;;4.40;1.20;;;;;;;27.28;26.67;101532.25;107398;1254;108912;-61
2023/06/03 11:14:24;;;;;;;8.00;1.40;;;;;;;27.97;25.60;101534.22;107416;1253;108417;-61
2023/06/03 11:16:56;;;;;;;6.50;1.70;;;;;;;28.54;24.50;101534.61;107426;1254;97806;-60
2023/06/03 11:19:36;;;;;;;9.50;1.30;;;;;;;28.87;23.91;101533.38;107467;1257;98414;-60
2023/06/03 11:22:07;;;;;;;6.90;1.10;;;;;;;29.16;23.84;101525.01;107440;1254;111337;-61
2023/06/03 11:24:41;;;;;;;4.70;1.20;;;;;;;29.58;23.52;101523.60;107459;1253;109900;-60
2023/06/03 11:27:15;;;;;;;1.90;1.00;;;;;;;29.84;23.04;101522.71;107284;1254;108306;-61
2023/06/03 11:29:44;;;;;;;7.80;1.30;;;;;;;30.11;22.95;101521.80;107372;1254;97857;-61